sensor_id;sensor_type;location;lat;lon;timestamp;pressure;altitude;pressure_sealevel;temperature;humidity
35649;BME280;21768;48.562;13.414;2022-09-13T00:00:49;97148.97;;;15.01;76.02
35649;BME280;21768;48.562;13.414;2022-09-13T00:03:15;97149.78;;;15.00;76.00
35649;BME280;21768;48.562;13.414;2022-09-13T00:05:40;97153.13;;;14.99;76.00
35649;BME280;21768;48.562;13.414;2022-09-13T00:08:06;97146.44;;;15.01;76.03
35649;BME280;21768;48.562;13.414;2022-09-13T00:10:34;97144.03;;;15.04;75.92
35649;BME280;21768;48.562;13.414;2022-09-13T00:13:01;97141.50;;;15.04;75.96
35649;BME280;21768;48.562;13.414;2022-09-13T00:15:27;97141.56;;;15.06;75.98
35649;BME280;21768;48.562;13.414;2022-09-13T00:17:52;97141.69;;;15.09;76.01
35649;BME280;21768;48.562;13.414;2022-09-13T00:20:18;97140.19;;;15.14;75.97
35649;BME280;21768;48.562;13.414;2022-09-13T00:22:43;97139.31;;;15.13;75.94
35649;BME280;21768;48.562;13.414;2022-09-13T00:25:09;97139.31;;;15.13;76.05
35649;BME280;21768;48.562;13.414;2022-09-13T00:27:35;97133.31;;;15.11;76.05
35649;BME280;21768;48.562;13.414;2022-09-13T00:30:02;97127.41;;;15.12;76.08
35649;BME280;21768;48.562;13.414;2022-09-13T00:32:28;97127.47;;;15.14;76.13
35649;BME280;21768;48.562;13.414;2022-09-13T00:34:53;97137.59;;;15.12;76.12
35649;BME280;21768;48.562;13.414;2022-09-13T00:37:19;97129.97;;;15.12;76.07
35649;BME280;21768;48.562;13.414;2022-09-13T00:39:44;97123.94;;;15.10;76.08
35649;BME280;21768;48.562;13.414;2022-09-13T00:42:11;97116.22;;;15.07;76.19
35649;BME280;21768;48.562;13.414;2022-09-13T00:47:26;97107.44;;;15.01;76.57
35649;BME280;21768;48.562;13.414;2022-09-13T00:49:58;97109.78;;;14.96;76.50
35649;BME280;21768;48.562;13.414;2022-09-13T00:52:26;97102.69;;;14.89;76.58
35649;BME280;21768;48.562;13.414;2022-09-13T00:54:59;97095.69;;;14.83;76.66
35649;BME280;21768;48.562;13.414;2022-09-13T00:57:26;97098.25;;;14.83;76.76
35649;BME280;21768;48.562;13.414;2022-09-13T00:59:59;97099.91;;;14.83;76.79
35649;BME280;21768;48.562;13.414;2022-09-13T01:02:29;97099.84;;;14.81;76.68
35649;BME280;21768;48.562;13.414;2022-09-13T01:04:55;97100.44;;;14.76;76.89
35649;BME280;21768;48.562;13.414;2022-09-13T01:07:21;97104.72;;;14.77;77.04
35649;BME280;21768;48.562;13.414;2022-09-13T01:09:47;97102.19;;;14.77;77.02
35649;BME280;21768;48.562;13.414;2022-09-13T01:12:23;97098.69;;;14.75;76.98
35649;BME280;21768;48.562;13.414;2022-09-13T01:14:50;97092.53;;;14.70;76.88
35649;BME280;21768;48.562;13.414;2022-09-13T01:17:16;97088.13;;;14.66;76.97
35649;BME280;21768;48.562;13.414;2022-09-13T01:19:42;97094.00;;;14.64;77.09
35649;BME280;21768;48.562;13.414;2022-09-13T01:25:13;97076.84;;;14.59;77.33
35649;BME280;21768;48.562;13.414;2022-09-13T01:36:39;97075.38;;;14.64;77.03
35649;BME280;21768;48.562;13.414;2022-09-13T01:44:26;97066.41;;;14.72;76.81
35649;BME280;21768;48.562;13.414;2022-09-13T01:55:17;97078.09;;;14.69;77.09
35649;BME280;21768;48.562;13.414;2022-09-13T01:58:00;97072.91;;;14.66;77.40
35649;BME280;21768;48.562;13.414;2022-09-13T02:00:27;97074.50;;;14.63;76.93
35649;BME280;21768;48.562;13.414;2022-09-13T02:03:20;97069.25;;;14.59;77.04
35649;BME280;21768;48.562;13.414;2022-09-13T02:05:56;97070.03;;;14.58;77.21
35649;BME280;21768;48.562;13.414;2022-09-13T02:08:24;97056.47;;;14.57;77.32
35649;BME280;21768;48.562;13.414;2022-09-13T02:11:01;97053.94;;;14.57;77.18
35649;BME280;21768;48.562;13.414;2022-09-13T02:13:35;97045.38;;;14.55;77.45
35649;BME280;21768;48.562;13.414;2022-09-13T02:16:09;97051.25;;;14.54;77.54
35649;BME280;21768;48.562;13.414;2022-09-13T02:18:40;97050.59;;;14.58;77.61
35649;BME280;21768;48.562;13.414;2022-09-13T02:21:35;97048.94;;;14.59;77.49
35649;BME280;21768;48.562;13.414;2022-09-13T02:24:09;97051.25;;;14.54;77.46
35649;BME280;21768;48.562;13.414;2022-09-13T02:26:38;97044.31;;;14.50;77.83
35649;BME280;21768;48.562;13.414;2022-09-13T02:29:09;97047.13;;;14.56;77.97
35649;BME280;21768;48.562;13.414;2022-09-13T02:31:47;97040.44;;;14.58;77.80
35649;BME280;21768;48.562;13.414;2022-09-13T02:34:19;97039.75;;;14.62;77.56
35649;BME280;21768;48.562;13.414;2022-09-13T02:36:46;97041.25;;;14.57;77.60
35649;BME280;21768;48.562;13.414;2022-09-13T02:39:17;97043.78;;;14.57;77.70
35649;BME280;21768;48.562;13.414;2022-09-13T02:44:45;97038.81;;;14.60;77.41
35649;BME280;21768;48.562;13.414;2022-09-13T02:47:28;97048.09;;;14.60;77.59
35649;BME280;21768;48.562;13.414;2022-09-13T02:58:43;97057.28;;;14.56;77.49
35649;BME280;21768;48.562;13.414;2022-09-13T03:01:11;97057.66;;;14.46;77.84
35649;BME280;21768;48.562;13.414;2022-09-13T03:03:37;97054.81;;;14.40;77.83
35649;BME280;21768;48.562;13.414;2022-09-13T03:06:03;97053.78;;;14.35;78.24
35649;BME280;21768;48.562;13.414;2022-09-13T03:08:29;97058.09;;;14.38;78.34
35649;BME280;21768;48.562;13.414;2022-09-13T03:11:00;97057.34;;;14.40;78.47
35649;BME280;21768;48.562;13.414;2022-09-13T03:17:02;97056.09;;;14.30;78.44
35649;BME280;21768;48.562;13.414;2022-09-13T03:20:00;97045.06;;;14.30;78.57
35649;BME280;21768;48.562;13.414;2022-09-13T03:31:09;97050.47;;;14.38;78.60
35649;BME280;21768;48.562;13.414;2022-09-13T03:34:08;97053.94;;;14.40;78.49
35649;BME280;21768;48.562;13.414;2022-09-13T03:36:46;97053.06;;;14.39;78.31
35649;BME280;21768;48.562;13.414;2022-09-13T03:39:39;97061.66;;;14.41;78.46
35649;BME280;21768;48.562;13.414;2022-09-13T03:44:48;97071.88;;;14.43;78.38
35649;BME280;21768;48.562;13.414;2022-09-13T03:47:16;97072.81;;;14.45;78.06
35649;BME280;21768;48.562;13.414;2022-09-13T03:49:42;97065.22;;;14.45;78.15
35649;BME280;21768;48.562;13.414;2022-09-13T03:52:08;97063.53;;;14.45;77.88
35649;BME280;21768;48.562;13.414;2022-09-13T03:54:36;97064.47;;;14.47;77.91
35649;BME280;21768;48.562;13.414;2022-09-13T03:57:08;97057.72;;;14.48;77.88
35649;BME280;21768;48.562;13.414;2022-09-13T03:59:35;97061.88;;;14.46;77.86
35649;BME280;21768;48.562;13.414;2022-09-13T04:02:03;97065.41;;;14.49;77.87
35649;BME280;21768;48.562;13.414;2022-09-13T04:04:28;97074.84;;;14.52;77.74
35649;BME280;21768;48.562;13.414;2022-09-13T04:06:54;97075.66;;;14.51;77.80
35649;BME280;21768;48.562;13.414;2022-09-13T04:09:21;97080.66;;;14.49;77.89
35649;BME280;21768;48.562;13.414;2022-09-13T04:11:47;97072.81;;;14.45;77.51
35649;BME280;21768;48.562;13.414;2022-09-13T04:14:12;97080.19;;;14.40;77.48
35649;BME280;21768;48.562;13.414;2022-09-13T04:16:38;97085.19;;;14.39;77.42
35649;BME280;21768;48.562;13.414;2022-09-13T04:19:03;97094.41;;;14.37;77.09
35649;BME280;21768;48.562;13.414;2022-09-13T04:21:29;97093.44;;;14.33;77.17
35649;BME280;21768;48.562;13.414;2022-09-13T04:23:55;97083.94;;;14.29;77.41
35649;BME280;21768;48.562;13.414;2022-09-13T04:26:21;97078.94;;;14.30;77.21
35649;BME280;21768;48.562;13.414;2022-09-13T04:28:47;97069.66;;;14.31;76.69
35649;BME280;21768;48.562;13.414;2022-09-13T04:31:13;97062.84;;;14.30;76.87
35649;BME280;21768;48.562;13.414;2022-09-13T04:33:38;97058.50;;;14.27;77.34
35649;BME280;21768;48.562;13.414;2022-09-13T04:36:05;97038.50;;;14.16;76.96
35649;BME280;21768;48.562;13.414;2022-09-13T04:38:31;97041.91;;;14.16;77.20
35649;BME280;21768;48.562;13.414;2022-09-13T04:40:56;97037.69;;;14.17;76.93
35649;BME280;21768;48.562;13.414;2022-09-13T04:43:22;97041.03;;;14.16;77.26
35649;BME280;21768;48.562;13.414;2022-09-13T04:45:48;97040.97;;;14.14;77.39
35649;BME280;21768;48.562;13.414;2022-09-13T04:48:13;97041.75;;;14.13;77.40
35649;BME280;21768;48.562;13.414;2022-09-13T04:50:39;97053.47;;;14.10;77.56
35649;BME280;21768;48.562;13.414;2022-09-13T04:53:05;97058.53;;;14.10;77.79
35649;BME280;21768;48.562;13.414;2022-09-13T04:55:30;97057.06;;;14.15;77.75
35649;BME280;21768;48.562;13.414;2022-09-13T04:57:56;97056.47;;;14.20;77.63
35649;BME280;21768;48.562;13.414;2022-09-13T05:00:22;97050.53;;;14.20;77.77
35649;BME280;21768;48.562;13.414;2022-09-13T05:02:47;97048.78;;;14.19;77.58
35649;BME280;21768;48.562;13.414;2022-09-13T05:05:12;97053.84;;;14.19;77.73
35649;BME280;21768;48.562;13.414;2022-09-13T05:07:38;97053.84;;;14.19;77.59
35649;BME280;21768;48.562;13.414;2022-09-13T05:10:04;97043.78;;;14.20;77.83
35649;BME280;21768;48.562;13.414;2022-09-13T05:12:30;97053.13;;;14.21;77.50
35649;BME280;21768;48.562;13.414;2022-09-13T05:14:55;97056.53;;;14.22;77.63
35649;BME280;21768;48.562;13.414;2022-09-13T05:17:21;97062.41;;;14.21;77.69
35649;BME280;21768;48.562;13.414;2022-09-13T05:19:46;97060.81;;;14.23;77.62
35649;BME280;21768;48.562;13.414;2022-09-13T05:22:12;97070.25;;;14.25;77.63
35649;BME280;21768;48.562;13.414;2022-09-13T05:24:37;97072.25;;;14.33;77.95
35649;BME280;21768;48.562;13.414;2022-09-13T05:27:03;97080.94;;;14.38;77.75
35649;BME280;21768;48.562;13.414;2022-09-13T05:29:28;97082.84;;;14.42;77.52
35649;BME280;21768;48.562;13.414;2022-09-13T05:31:53;97077.03;;;14.44;77.33
35649;BME280;21768;48.562;13.414;2022-09-13T05:34:19;97066.09;;;14.45;77.24
35649;BME280;21768;48.562;13.414;2022-09-13T05:36:45;97067.88;;;14.48;77.19
35649;BME280;21768;48.562;13.414;2022-09-13T05:39:14;97065.41;;;14.49;76.96
35649;BME280;21768;48.562;13.414;2022-09-13T05:41:42;97074.91;;;14.53;77.04
35649;BME280;21768;48.562;13.414;2022-09-13T05:44:07;97079.34;;;14.57;76.63
35649;BME280;21768;48.562;13.414;2022-09-13T05:46:33;97082.81;;;14.59;76.43
35649;BME280;21768;48.562;13.414;2022-09-13T05:48:59;97090.47;;;14.61;76.36
35649;BME280;21768;48.562;13.414;2022-09-13T05:51:25;97092.97;;;14.59;75.70
35649;BME280;21768;48.562;13.414;2022-09-13T05:53:52;97088.78;;;14.42;75.81
35649;BME280;21768;48.562;13.414;2022-09-13T05:56:23;97090.09;;;14.34;75.98
35649;BME280;21768;48.562;13.414;2022-09-13T05:58:50;97086.25;;;14.24;76.41
35649;BME280;21768;48.562;13.414;2022-09-13T06:01:19;97099.09;;;14.27;76.70
35649;BME280;21768;48.562;13.414;2022-09-13T06:03:53;97083.53;;;14.39;76.71
35649;BME280;21768;48.562;13.414;2022-09-13T06:06:20;97076.50;;;14.51;76.55
35649;BME280;21768;48.562;13.414;2022-09-13T06:08:46;97087.91;;;14.61;76.53
35649;BME280;21768;48.562;13.414;2022-09-13T06:11:13;97077.44;;;14.73;76.32
35649;BME280;21768;48.562;13.414;2022-09-13T06:13:40;97085.34;;;14.79;76.22
35649;BME280;21768;48.562;13.414;2022-09-13T06:16:08;97075.56;;;14.88;76.31
35649;BME280;21768;48.562;13.414;2022-09-13T06:18:34;97086.25;;;15.00;76.04
35649;BME280;21768;48.562;13.414;2022-09-13T06:21:09;97089.94;;;15.07;75.59
35649;BME280;21768;48.562;13.414;2022-09-13T06:23:35;97088.44;;;15.12;75.63
35649;BME280;21768;48.562;13.414;2022-09-13T06:26:12;97080.94;;;15.15;75.25
35649;BME280;21768;48.562;13.414;2022-09-13T06:28:37;97071.63;;;15.15;75.09
35649;BME280;21768;48.562;13.414;2022-09-13T06:31:11;97072.56;;;15.17;75.24
35649;BME280;21768;48.562;13.414;2022-09-13T06:33:39;97071.84;;;15.20;75.25
35649;BME280;21768;48.562;13.414;2022-09-13T06:36:07;97087.16;;;15.21;75.27
35649;BME280;21768;48.562;13.414;2022-09-13T06:38:32;97081.47;;;15.27;75.21
35649;BME280;21768;48.562;13.414;2022-09-13T06:41:09;97095.16;;;15.30;75.22
35649;BME280;21768;48.562;13.414;2022-09-13T06:43:35;97091.88;;;15.33;74.91
35649;BME280;21768;48.562;13.414;2022-09-13T06:46:07;97100.38;;;15.34;74.65
35649;BME280;21768;48.562;13.414;2022-09-13T06:48:36;97095.97;;;15.29;74.65
35649;BME280;21768;48.562;13.414;2022-09-13T06:51:05;97092.75;;;15.34;74.55
35649;BME280;21768;48.562;13.414;2022-09-13T06:53:32;97089.78;;;15.44;74.41
35649;BME280;21768;48.562;13.414;2022-09-13T06:56:26;97081.88;;;15.57;74.41
35649;BME280;21768;48.562;13.414;2022-09-13T06:58:55;97084.53;;;15.60;73.30
35649;BME280;21768;48.562;13.414;2022-09-13T07:01:26;97077.94;;;15.65;73.52
35649;BME280;21768;48.562;13.414;2022-09-13T07:03:54;97075.66;;;15.71;73.75
35649;BME280;21768;48.562;13.414;2022-09-13T07:06:23;97060.06;;;15.84;73.37
35649;BME280;21768;48.562;13.414;2022-09-13T07:08:51;97068.16;;;15.96;72.88
35649;BME280;21768;48.562;13.414;2022-09-13T07:11:19;97075.44;;;16.10;72.40
35649;BME280;21768;48.562;13.414;2022-09-13T07:13:53;97080.91;;;16.19;71.78
35649;BME280;21768;48.562;13.414;2022-09-13T07:16:22;97076.91;;;16.25;72.18
35649;BME280;21768;48.562;13.414;2022-09-13T07:18:53;97077.78;;;16.26;72.71
35649;BME280;21768;48.562;13.414;2022-09-13T07:21:19;97074.66;;;16.33;72.18
35649;BME280;21768;48.562;13.414;2022-09-13T07:23:45;97069.91;;;16.42;71.86
35649;BME280;21768;48.562;13.414;2022-09-13T07:26:10;97073.81;;;16.56;71.33
35649;BME280;21768;48.562;13.414;2022-09-13T07:28:38;97071.78;;;16.70;71.32
35649;BME280;21768;48.562;13.414;2022-09-13T07:31:28;97087.13;;;16.72;71.54
35649;BME280;21768;48.562;13.414;2022-09-13T07:34:01;97096.53;;;16.73;71.47
35649;BME280;21768;48.562;13.414;2022-09-13T07:36:28;97091.53;;;16.76;71.33
35649;BME280;21768;48.562;13.414;2022-09-13T07:38:54;97088.38;;;16.83;70.63
35649;BME280;21768;48.562;13.414;2022-09-13T07:41:21;97081.97;;;16.94;70.53
35649;BME280;21768;48.562;13.414;2022-09-13T07:43:48;97105.31;;;17.05;70.37
35649;BME280;21768;48.562;13.414;2022-09-13T07:46:19;97108.31;;;17.18;70.19
35649;BME280;21768;48.562;13.414;2022-09-13T07:48:45;97090.28;;;17.38;68.96
35649;BME280;21768;48.562;13.414;2022-09-13T07:51:13;97090.16;;;17.60;68.40
35649;BME280;21768;48.562;13.414;2022-09-13T07:53:41;97091.63;;;17.77;68.33
35649;BME280;21768;48.562;13.414;2022-09-13T07:56:10;97096.31;;;17.92;68.33
35649;BME280;21768;48.562;13.414;2022-09-13T07:58:37;97083.00;;;18.00;67.92
35649;BME280;21768;48.562;13.414;2022-09-13T08:03:31;97070.78;;;18.19;66.83
35649;BME280;21768;48.562;13.414;2022-09-13T08:05:56;97066.88;;;18.30;66.76
35649;BME280;21768;48.562;13.414;2022-09-13T08:08:22;97071.31;;;18.65;66.38
35649;BME280;21768;48.562;13.414;2022-09-13T08:10:47;97068.75;;;18.95;65.33
35649;BME280;21768;48.562;13.414;2022-09-13T08:13:15;97073.63;;;18.88;65.59
35649;BME280;21768;48.562;13.414;2022-09-13T08:15:40;97071.50;;;19.03;65.86
35649;BME280;21768;48.562;13.414;2022-09-13T08:18:06;97070.41;;;19.26;64.68
35649;BME280;21768;48.562;13.414;2022-09-13T08:20:35;97080.31;;;19.47;63.94
35649;BME280;21768;48.562;13.414;2022-09-13T08:23:01;97079.97;;;19.66;62.37
35649;BME280;21768;48.562;13.414;2022-09-13T08:25:26;97075.31;;;19.86;62.79
35649;BME280;21768;48.562;13.414;2022-09-13T08:27:51;97071.00;;;19.84;63.03
35649;BME280;21768;48.562;13.414;2022-09-13T08:30:17;97077.94;;;19.89;62.62
35649;BME280;21768;48.562;13.414;2022-09-13T08:32:42;97079.47;;;20.19;61.52
35649;BME280;21768;48.562;13.414;2022-09-13T08:35:08;97078.44;;;20.48;60.54
35649;BME280;21768;48.562;13.414;2022-09-13T08:37:33;97076.00;;;20.53;60.63
35649;BME280;21768;48.562;13.414;2022-09-13T08:39:59;97083.06;;;20.64;60.26
35649;BME280;21768;48.562;13.414;2022-09-13T08:42:43;97078.44;;;20.90;60.56
35649;BME280;21768;48.562;13.414;2022-09-13T08:45:11;97071.53;;;21.31;58.99
35649;BME280;21768;48.562;13.414;2022-09-13T08:47:46;97076.72;;;21.34;58.65
35649;BME280;21768;48.562;13.414;2022-09-13T08:50:26;97080.81;;;21.23;58.23
35649;BME280;21768;48.562;13.414;2022-09-13T08:53:27;97079.31;;;21.36;59.80
35649;BME280;21768;48.562;13.414;2022-09-13T08:56:05;97066.75;;;22.04;57.27
35649;BME280;21768;48.562;13.414;2022-09-13T08:58:58;97077.56;;;22.40;56.81
35649;BME280;21768;48.562;13.414;2022-09-13T09:01:47;97072.97;;;22.83;54.93
35649;BME280;21768;48.562;13.414;2022-09-13T09:07:02;97060.59;;;23.30;53.45
35649;BME280;21768;48.562;13.414;2022-09-13T09:09:34;97055.91;;;23.82;53.67
35649;BME280;21768;48.562;13.414;2022-09-13T09:14:59;97047.16;;;25.24;50.67
35649;BME280;21768;48.562;13.414;2022-09-13T09:20:22;97046.34;;;26.07;45.84
35649;BME280;21768;48.562;13.414;2022-09-13T09:22:50;97049.78;;;26.09;46.35
35649;BME280;21768;48.562;13.414;2022-09-13T09:25:17;97051.31;;;26.82;45.09
35649;BME280;21768;48.562;13.414;2022-09-13T09:27:42;97040.28;;;27.87;42.99
35649;BME280;21768;48.562;13.414;2022-09-13T09:30:12;97047.38;;;27.70;44.35
35649;BME280;21768;48.562;13.414;2022-09-13T09:32:55;97034.34;;;27.74;44.57
35649;BME280;21768;48.562;13.414;2022-09-13T09:40:47;97040.34;;;29.31;40.30
35649;BME280;21768;48.562;13.414;2022-09-13T09:43:19;97035.88;;;29.42;40.65
35649;BME280;21768;48.562;13.414;2022-09-13T09:45:50;97036.66;;;28.85;41.60
35649;BME280;21768;48.562;13.414;2022-09-13T09:48:21;97031.09;;;28.44;42.21
35649;BME280;21768;48.562;13.414;2022-09-13T09:50:54;97024.75;;;28.67;42.05
35649;BME280;21768;48.562;13.414;2022-09-13T09:53:30;97024.34;;;30.11;39.58
35649;BME280;21768;48.562;13.414;2022-09-13T09:56:00;97015.06;;;30.42;40.66
35649;BME280;21768;48.562;13.414;2022-09-13T10:01:05;97014.72;;;31.01;36.97
35649;BME280;21768;48.562;13.414;2022-09-13T10:03:39;97002.16;;;31.92;34.90
35649;BME280;21768;48.562;13.414;2022-09-13T10:06:10;97003.53;;;32.38;33.84
35649;BME280;21768;48.562;13.414;2022-09-13T10:08:39;97008.66;;;32.72;32.72
35649;BME280;21768;48.562;13.414;2022-09-13T10:11:06;96995.22;;;31.91;33.23
35649;BME280;21768;48.562;13.414;2022-09-13T10:13:32;96997.34;;;31.00;35.31
35649;BME280;21768;48.562;13.414;2022-09-13T10:16:06;97001.53;;;30.68;36.18
35649;BME280;21768;48.562;13.414;2022-09-13T10:18:46;96984.06;;;31.49;34.04
35649;BME280;21768;48.562;13.414;2022-09-13T10:23:45;96980.84;;;32.69;31.78
35649;BME280;21768;48.562;13.414;2022-09-13T10:26:22;96988.34;;;31.87;33.27
35649;BME280;21768;48.562;13.414;2022-09-13T10:31:27;96986.19;;;32.35;31.77
35649;BME280;21768;48.562;13.414;2022-09-13T10:36:31;96972.50;;;31.93;32.53
35649;BME280;21768;48.562;13.414;2022-09-13T10:39:00;96967.41;;;32.52;33.00
35649;BME280;21768;48.562;13.414;2022-09-13T10:41:29;96961.81;;;33.22;31.54
35649;BME280;21768;48.562;13.414;2022-09-13T10:44:02;96968.22;;;34.42;29.44
35649;BME280;21768;48.562;13.414;2022-09-13T10:46:31;96969.28;;;34.61;28.46
35649;BME280;21768;48.562;13.414;2022-09-13T10:48:57;96962.53;;;33.81;30.41
35649;BME280;21768;48.562;13.414;2022-09-13T10:56:39;96972.06;;;34.57;28.72
35649;BME280;21768;48.562;13.414;2022-09-13T11:05:14;96964.50;;;32.92;31.12
35649;BME280;21768;48.562;13.414;2022-09-13T11:13:06;96952.66;;;31.54;32.99
35649;BME280;21768;48.562;13.414;2022-09-13T11:21:17;96935.72;;;32.64;31.46
35649;BME280;21768;48.562;13.414;2022-09-13T11:29:20;96931.53;;;34.17;28.63
35649;BME280;21768;48.562;13.414;2022-09-13T11:35:14;96924.84;;;37.57;25.67
35649;BME280;21768;48.562;13.414;2022-09-13T11:43:15;96920.81;;;31.75;31.73
35649;BME280;21768;48.562;13.414;2022-09-13T11:45:56;96916.44;;;30.26;34.34
35649;BME280;21768;48.562;13.414;2022-09-13T11:56:26;96904.25;;;28.14;38.31
35649;BME280;21768;48.562;13.414;2022-09-13T11:59:15;96899.09;;;28.11;38.54
35649;BME280;21768;48.562;13.414;2022-09-13T12:01:50;96899.97;;;28.08;38.94
35649;BME280;21768;48.562;13.414;2022-09-13T12:04:27;96900.25;;;27.84;39.63
35649;BME280;21768;48.562;13.414;2022-09-13T12:06:57;96898.84;;;27.50;38.81
35649;BME280;21768;48.562;13.414;2022-09-13T12:09:28;96902.59;;;27.21;40.87
35649;BME280;21768;48.562;13.414;2022-09-13T12:12:05;96903.59;;;27.03;41.22
35649;BME280;21768;48.562;13.414;2022-09-13T12:14:55;96907.06;;;26.98;41.45
35649;BME280;21768;48.562;13.414;2022-09-13T12:17:44;96895.97;;;26.81;41.13
35649;BME280;21768;48.562;13.414;2022-09-13T12:22:44;96898.75;;;26.49;43.57
35649;BME280;21768;48.562;13.414;2022-09-13T12:25:19;96902.28;;;26.31;42.88
35649;BME280;21768;48.562;13.414;2022-09-13T12:28:15;96901.56;;;25.98;41.91
35649;BME280;21768;48.562;13.414;2022-09-13T12:30:44;96917.09;;;25.86;41.80
35649;BME280;21768;48.562;13.414;2022-09-13T12:33:14;96913.66;;;25.84;43.72
35649;BME280;21768;48.562;13.414;2022-09-13T12:35:52;96905.91;;;25.83;45.08
35649;BME280;21768;48.562;13.414;2022-09-13T12:47:19;96881.88;;;25.27;48.21
35649;BME280;21768;48.562;13.414;2022-09-13T12:55:58;96881.00;;;25.28;44.42
35649;BME280;21768;48.562;13.414;2022-09-13T13:01:22;96866.41;;;25.14;48.26
35649;BME280;21768;48.562;13.414;2022-09-13T13:04:08;96858.66;;;25.09;48.41
35649;BME280;21768;48.562;13.414;2022-09-13T13:14:59;96861.22;;;24.94;49.66
35649;BME280;21768;48.562;13.414;2022-09-13T13:17:43;96859.50;;;24.73;50.08
35649;BME280;21768;48.562;13.414;2022-09-13T13:28:53;96845.59;;;24.13;52.22
35649;BME280;21768;48.562;13.414;2022-09-13T13:36:27;96851.59;;;24.07;55.26
35649;BME280;21768;48.562;13.414;2022-09-13T13:38:58;96849.00;;;24.06;55.39
35649;BME280;21768;48.562;13.414;2022-09-13T13:44:01;96845.53;;;24.02;53.94
35649;BME280;21768;48.562;13.414;2022-09-13T13:46:46;96836.97;;;24.05;52.96
35649;BME280;21768;48.562;13.414;2022-09-13T14:00:16;96841.22;;;23.92;52.13
35649;BME280;21768;48.562;13.414;2022-09-13T14:05:27;96829.22;;;23.97;53.63
35649;BME280;21768;48.562;13.414;2022-09-13T14:10:49;96841.25;;;24.06;52.44
35649;BME280;21768;48.562;13.414;2022-09-13T14:21:43;96846.44;;;24.14;53.40
35649;BME280;21768;48.562;13.414;2022-09-13T14:26:50;96843.84;;;24.00;55.19
35649;BME280;21768;48.562;13.414;2022-09-13T14:29:23;96843.81;;;23.91;55.72
35649;BME280;21768;48.562;13.414;2022-09-13T14:31:54;96844.63;;;23.82;56.15
35649;BME280;21768;48.562;13.414;2022-09-13T14:34:26;96852.31;;;23.76;56.88
35649;BME280;21768;48.562;13.414;2022-09-13T14:36:54;96841.09;;;23.63;58.04
35649;BME280;21768;48.562;13.414;2022-09-13T14:39:21;96842.81;;;23.61;57.96
35649;BME280;21768;48.562;13.414;2022-09-13T14:41:46;96832.50;;;23.61;57.19
35649;BME280;21768;48.562;13.414;2022-09-13T14:44:21;96835.91;;;23.56;56.13
35649;BME280;21768;48.562;13.414;2022-09-13T14:47:00;96835.91;;;23.56;57.30
35649;BME280;21768;48.562;13.414;2022-09-13T14:49:31;96843.63;;;23.56;57.68
35649;BME280;21768;48.562;13.414;2022-09-13T14:52:03;96835.88;;;23.53;57.06
35649;BME280;21768;48.562;13.414;2022-09-13T14:57:06;96828.06;;;23.37;59.16
35649;BME280;21768;48.562;13.414;2022-09-13T14:59:40;96819.44;;;23.32;58.58
35649;BME280;21768;48.562;13.414;2022-09-13T15:02:16;96813.41;;;23.30;59.45
35649;BME280;21768;48.562;13.414;2022-09-13T15:04:46;96813.44;;;23.33;59.30
35649;BME280;21768;48.562;13.414;2022-09-13T15:07:20;96806.59;;;23.38;59.21
35649;BME280;21768;48.562;13.414;2022-09-13T15:09:46;96804.09;;;23.46;58.68
35649;BME280;21768;48.562;13.414;2022-09-13T15:12:23;96805.16;;;24.01;57.68
35649;BME280;21768;48.562;13.414;2022-09-13T15:15:20;96800.09;;;24.29;55.95
35649;BME280;21768;48.562;13.414;2022-09-13T15:17:57;96794.03;;;24.15;56.78
35649;BME280;21768;48.562;13.414;2022-09-13T15:20:24;96801.75;;;23.98;57.48
35649;BME280;21768;48.562;13.414;2022-09-13T15:22:51;96800.81;;;23.82;54.91
35649;BME280;21768;48.562;13.414;2022-09-13T15:25:26;96802.53;;;23.76;57.97
35649;BME280;21768;48.562;13.414;2022-09-13T15:27:53;96805.03;;;23.62;56.50
35649;BME280;21768;48.562;13.414;2022-09-13T15:30:29;96803.22;;;23.52;56.97
35649;BME280;21768;48.562;13.414;2022-09-13T15:35:35;96805.75;;;23.41;58.12
35649;BME280;21768;48.562;13.414;2022-09-13T15:40:44;96803.03;;;23.15;59.36
35649;BME280;21768;48.562;13.414;2022-09-13T15:43:10;96800.41;;;23.07;60.21
35649;BME280;21768;48.562;13.414;2022-09-13T15:45:35;96803.81;;;23.00;60.32
35649;BME280;21768;48.562;13.414;2022-09-13T15:48:01;96797.75;;;22.92;60.21
35649;BME280;21768;48.562;13.414;2022-09-13T15:50:28;96795.97;;;22.84;60.76
35649;BME280;21768;48.562;13.414;2022-09-13T15:52:57;96794.19;;;22.78;61.30
35649;BME280;21768;48.562;13.414;2022-09-13T15:55:23;96793.31;;;22.74;60.95
35649;BME280;21768;48.562;13.414;2022-09-13T15:57:49;96794.13;;;22.69;60.97
35649;BME280;21768;48.562;13.414;2022-09-13T16:00:21;96789.78;;;22.63;61.44
35649;BME280;21768;48.562;13.414;2022-09-13T16:02:47;96789.75;;;22.59;61.58
35649;BME280;21768;48.562;13.414;2022-09-13T16:05:13;96789.69;;;22.51;61.51
35649;BME280;21768;48.562;13.414;2022-09-13T16:07:39;96785.28;;;22.38;61.42
35649;BME280;21768;48.562;13.414;2022-09-13T16:10:16;96785.22;;;22.32;61.01
35649;BME280;21768;48.562;13.414;2022-09-13T16:12:42;96779.19;;;22.28;61.71
35649;BME280;21768;48.562;13.414;2022-09-13T16:15:09;96785.16;;;22.23;61.27
35649;BME280;21768;48.562;13.414;2022-09-13T16:17:34;96782.50;;;22.14;61.28
35649;BME280;21768;48.562;13.414;2022-09-13T16:20:00;96780.72;;;22.08;61.61
35649;BME280;21768;48.562;13.414;2022-09-13T16:22:25;96776.41;;;22.05;61.73
35649;BME280;21768;48.562;13.414;2022-09-13T16:24:51;96778.09;;;22.02;62.02
35649;BME280;21768;48.562;13.414;2022-09-13T16:27:18;96781.47;;;21.99;62.20
35649;BME280;21768;48.562;13.414;2022-09-13T16:29:44;96779.75;;;21.98;62.68
35649;BME280;21768;48.562;13.414;2022-09-13T16:32:10;96777.09;;;21.92;62.18